Oklahoma City, OK (73195)

6:44 PM CST on December 21, 2014 (GMT -0600)
Penshurst 3rd | Change Station
CLOSE
Current Station
Personal Weather Station
Location: Oklahoma CIty, OK
Elevation: 1200 ft
Nearby Weather Stations

Elev 1200 ft 35.54 °N, 97.56 °W | Updated 3 seconds ago

Overcast
Overcast
46.8 °F
Feels Like 47 °F
N
0.0
Wind Variable Wind from SE
Gusts 0.0 mph

Today
High -- | Low -- °F
--% Chance of Precip.
Yesterday
High -- | Low -- °F
Precip. -- in
7:35 AM 5:20 PM
Waning Crescent, 0% visible
Pressure 29.74 in
Visibility 3.0 miles
Clouds Overcast 800 ft
Windchill 47 °F
Dew Point 45 °F
Humidity 93%
Rainfall 0.00 in
Snow Depth Not available.
UV 0 out of 12
Pollen 8.10 out of 12
Air Quality Not available.
Flu Activity Not available.
METAR KPWA 212353Z 16014G23KT 3SM BR OVC008 08/07 A2974 RMK AO2 SFC VIS 6 RAE00 SLP071 P0000 60001 T00830067 10083 20083 58016

More Conditions Fewer Conditions

Pressure 29.74 in
Visibility 3.0 miles
Clouds Overcast 800 ft
Windchill 47 °F
Dew Point 45 °F
Humidity 93%
Rainfall 0.00 in
Snow Depth Not available.
UV 0 out of 12
Pollen 8.10 out of 12
Air Quality Not available.
Flu Activity Not available.
METAR KPWA 212353Z 16014G23KT 3SM BR OVC008 08/07 A2974 RMK AO2 SFC VIS 6 RAE00 SLP071 P0000 60001 T00830067 10083 20083 58016

More Conditions Fewer Conditions

10-Day Weather Forecast

Almanac

Astronomy

Dec. 21, 2014 Rise Set
Actual Time
Civil Twilight
Nautical Twilight
Astronomical Twilight
Moon
Length of Visible Light
Length of Day
Tomorrow will be .
, % of the Moon is Illuminated

Today's Extremes

State Highs State Lows

Community

WunderPhotos

Upload Photos

1,779,509 photos uploaded!

WunderBlogs® & News

Nearby

Air Quality

  Air Quality AQ Index Pollutant
Not available.

Snow Depth

Station Depth Elevation

Earthquake Activity

City Distance Mag. Time & Date
Minimum magnitude displayed is 2.5.

Coastal Water Temperatures

Place Temperature

Nearby Weather Stations